createdAt,value
2022-09-14T00:01:29.049Z,12.20
2022-09-14T00:03:58.869Z,12.42
2022-09-14T00:06:27.553Z,12.41
2022-09-14T00:08:58.220Z,12.17
2022-09-14T00:11:29.540Z,12.23
2022-09-14T00:13:59.514Z,12.34
2022-09-14T00:16:29.223Z,12.32
2022-09-14T00:19:00.457Z,12.29
2022-09-14T00:21:30.129Z,12.26
2022-09-14T00:23:59.018Z,12.23
2022-09-14T00:26:28.410Z,12.21
2022-09-14T00:28:58.083Z,12.20
2022-09-14T00:31:27.166Z,12.18
2022-09-14T00:33:55.336Z,12.15
2022-09-14T00:36:25.379Z,12.03
2022-09-14T00:38:55.190Z,12.12
2022-09-14T00:41:25.286Z,11.97
2022-09-14T00:43:57.412Z,12.10
2022-09-14T00:46:26.753Z,12.08
2022-09-14T00:48:55.050Z,11.66
2022-09-14T00:51:24.036Z,11.98
2022-09-14T00:53:52.309Z,12.02
2022-09-14T00:56:20.576Z,12.01
2022-09-14T00:58:52.397Z,12.00
2022-09-14T01:01:22.178Z,11.92
2022-09-14T01:03:50.207Z,11.88
2022-09-14T01:06:25.071Z,11.98
2022-09-14T01:09:12.198Z,12.06
2022-09-14T01:12:11.252Z,11.85
2022-09-14T01:14:46.178Z,12.04
2022-09-14T01:17:24.225Z,12.05
2022-09-14T01:20:11.086Z,12.07
2022-09-14T01:22:48.189Z,12.09
2022-09-14T01:25:35.651Z,12.11
2022-09-14T01:28:12.018Z,11.52
2022-09-14T01:30:43.262Z,12.13
2022-09-14T01:33:16.313Z,12.13
2022-09-14T01:35:47.997Z,11.71
2022-09-14T01:38:21.872Z,12.15
2022-09-14T01:40:52.438Z,12.19
2022-09-14T01:43:26.884Z,11.76
2022-09-14T01:46:00.992Z,12.11
2022-09-14T01:48:34.259Z,12.21
2022-09-14T01:51:07.057Z,12.22
2022-09-14T01:53:39.917Z,12.24
2022-09-14T01:56:12.155Z,12.27
2022-09-14T01:58:47.156Z,12.19
2022-09-14T02:01:18.401Z,11.94
2022-09-14T02:03:49.870Z,12.22
2022-09-14T02:06:24.012Z,12.28
2022-09-14T02:08:53.410Z,12.03
2022-09-14T02:11:21.335Z,11.60
2022-09-14T02:13:50.590Z,12.28
2022-09-14T02:16:19.107Z,12.32
2022-09-14T02:18:46.989Z,12.36
2022-09-14T02:21:18.554Z,12.38
2022-09-14T02:23:48.192Z,12.35
2022-09-14T02:26:17.668Z,12.35
2022-09-14T02:28:45.492Z,12.37
2022-09-14T02:31:25.014Z,12.24
2022-09-14T02:34:02.107Z,12.30
2022-09-14T02:36:42.876Z,12.25
2022-09-14T02:39:23.385Z,12.24
2022-09-14T02:41:55.497Z,12.19
2022-09-14T02:44:32.165Z,12.18
2022-09-14T02:47:06.867Z,12.15
2022-09-14T02:49:45.538Z,12.11
2022-09-14T02:52:17.451Z,12.06
2022-09-14T02:54:51.408Z,12.08
2022-09-14T02:57:19.732Z,12.11
2022-09-14T02:59:47.678Z,12.09
2022-09-14T03:02:17.034Z,12.06
2022-09-14T03:04:45.342Z,12.05
2022-09-14T03:07:13.301Z,12.02
2022-09-14T03:09:41.335Z,12.01
2022-09-14T03:12:09.588Z,11.99
2022-09-14T03:14:37.489Z,11.99
2022-09-14T03:17:05.456Z,11.97
2022-09-14T03:19:35.035Z,11.76
2022-09-14T03:22:02.847Z,11.89
2022-09-14T03:24:30.966Z,11.76
2022-09-14T03:26:58.970Z,11.83
2022-09-14T03:29:28.174Z,11.34
2022-09-14T03:31:56.045Z,11.69
2022-09-14T03:34:24.302Z,11.64
2022-09-14T03:36:53.518Z,11.58
2022-09-14T03:39:21.754Z,11.30
2022-09-14T03:41:49.973Z,11.32
2022-09-14T03:44:17.877Z,11.34
2022-09-14T03:46:46.158Z,11.28
2022-09-14T03:49:14.371Z,10.44
2022-09-14T03:51:42.368Z,11.20
2022-09-14T03:54:11.564Z,11.20
2022-09-14T03:56:39.644Z,10.81
2022-09-14T03:59:09.547Z,11.10
2022-09-14T04:01:38.306Z,11.19
2022-09-14T04:04:06.573Z,11.20
2022-09-14T04:06:34.578Z,11.13
2022-09-14T04:09:02.537Z,11.23
2022-09-14T04:11:34.045Z,11.23
2022-09-14T04:14:02.829Z,11.22
2022-09-14T04:16:31.094Z,11.21
2022-09-14T04:18:59.091Z,11.00
2022-09-14T04:21:27.104Z,11.19
2022-09-14T04:24:13.896Z,11.01
2022-09-14T04:26:44.352Z,11.13
2022-09-14T04:29:14.480Z,11.12
2022-09-14T04:31:42.505Z,11.13
2022-09-14T04:34:13.017Z,11.08
2022-09-14T04:36:40.989Z,11.17
2022-09-14T04:39:11.008Z,11.04
2022-09-14T04:41:39.016Z,11.18
2022-09-14T04:44:08.340Z,11.19
2022-09-14T04:46:36.801Z,11.20
2022-09-14T04:49:04.852Z,11.20
2022-09-14T04:51:34.010Z,11.10
2022-09-14T04:54:05.508Z,11.18
2022-09-14T04:56:37.546Z,11.15
2022-09-14T04:59:06.504Z,11.13
2022-09-14T05:01:37.953Z,11.10
2022-09-14T05:04:07.148Z,11.06
2022-09-14T05:06:36.831Z,10.81
2022-09-14T05:09:06.813Z,10.82
2022-09-14T05:11:37.734Z,11.01
2022-09-14T05:14:06.577Z,11.04
2022-09-14T05:16:38.429Z,11.05
2022-09-14T05:19:08.301Z,11.07
2022-09-14T05:21:37.860Z,11.08
2022-09-14T05:24:09.008Z,11.12
2022-09-14T05:26:36.878Z,11.14
2022-09-14T05:29:05.020Z,10.77
2022-09-14T05:31:35.045Z,11.04
2022-09-14T05:34:02.916Z,11.14
2022-09-14T05:36:30.917Z,11.16
2022-09-14T05:38:59.129Z,11.24
2022-09-14T05:41:26.935Z,11.27
2022-09-14T05:43:54.759Z,11.32
2022-09-14T05:46:23.160Z,11.31
2022-09-14T05:48:52.500Z,11.32
2022-09-14T05:51:22.797Z,11.40
2022-09-14T05:53:51.831Z,11.39
2022-09-14T05:56:21.244Z,10.97
2022-09-14T05:58:49.365Z,10.69
2022-09-14T06:01:19.560Z,11.48
2022-09-14T06:03:48.902Z,11.45
2022-09-14T06:06:19.972Z,11.57
2022-09-14T06:08:52.616Z,11.75
2022-09-14T06:11:24.470Z,11.76
2022-09-14T06:13:53.146Z,11.33
2022-09-14T06:16:23.756Z,11.53
2022-09-14T06:18:51.790Z,11.41
2022-09-14T06:21:22.314Z,11.38
2022-09-14T06:23:52.111Z,11.34
2022-09-14T06:26:20.814Z,11.16
2022-09-14T06:28:48.871Z,11.33
2022-09-14T06:31:18.040Z,11.30
2022-09-14T06:33:46.758Z,11.31
2022-09-14T06:36:17.969Z,11.07
2022-09-14T06:38:49.070Z,11.13
2022-09-14T06:41:20.122Z,11.42
2022-09-14T06:43:48.851Z,11.48
2022-09-14T06:46:20.065Z,11.45
2022-09-14T06:48:50.327Z,11.43
2022-09-14T06:51:20.266Z,11.45
2022-09-14T06:53:50.825Z,11.45
2022-09-14T06:56:19.773Z,11.45
2022-09-14T06:58:47.712Z,11.44
2022-09-14T07:01:17.296Z,11.48
2022-09-14T07:03:46.996Z,11.48
2022-09-14T07:06:17.880Z,11.53
2022-09-14T07:08:45.933Z,11.48
2022-09-14T07:11:17.231Z,11.49
2022-09-14T07:13:46.570Z,11.42
2022-09-14T07:16:15.051Z,11.37
2022-09-14T07:18:43.412Z,11.41
2022-09-14T07:21:13.704Z,11.42
2022-09-14T07:23:43.705Z,11.42
2022-09-14T07:26:13.523Z,11.44
2022-09-14T07:28:45.205Z,10.75
2022-09-14T07:31:18.851Z,11.54
2022-09-14T07:33:47.573Z,11.54
2022-09-14T07:36:16.260Z,11.76
2022-09-14T07:38:52.854Z,11.86
2022-09-14T07:41:21.654Z,11.77
2022-09-14T07:43:52.008Z,10.87
2022-09-14T07:46:20.670Z,11.75
2022-09-14T07:48:50.214Z,11.71
2022-09-14T07:51:18.227Z,11.68
2022-09-14T07:53:46.353Z,11.89
2022-09-14T07:56:16.790Z,11.84
2022-09-14T07:58:45.675Z,11.64
2022-09-14T08:01:18.019Z,11.70
2022-09-14T08:03:49.005Z,11.83
2022-09-14T08:06:19.330Z,11.81
2022-09-14T08:08:49.174Z,11.82
2022-09-14T08:11:19.512Z,11.94
2022-09-14T08:13:50.785Z,11.98
2022-09-14T08:16:21.112Z,11.74
2022-09-14T08:18:49.873Z,11.78
2022-09-14T08:21:18.944Z,11.71
2022-09-14T08:23:47.090Z,11.75
2022-09-14T08:26:16.253Z,11.75
2022-09-14T08:28:44.784Z,11.95
2022-09-14T08:31:14.958Z,12.43
2022-09-14T08:33:46.660Z,12.72
2022-09-14T08:36:16.534Z,12.75
2022-09-14T08:38:44.833Z,13.02
2022-09-14T08:41:26.008Z,13.27
2022-09-14T08:43:54.498Z,13.23
2022-09-14T08:46:31.226Z,13.13
2022-09-14T08:49:02.392Z,12.83
2022-09-14T08:51:30.972Z,12.60
2022-09-14T08:54:00.641Z,12.43
2022-09-14T08:56:33.830Z,12.35
2022-09-14T08:59:21.913Z,12.37
2022-09-14T09:01:59.089Z,12.80
2022-09-14T09:04:51.126Z,13.57
2022-09-14T09:07:27.043Z,14.21
2022-09-14T09:09:58.205Z,14.65
2022-09-14T09:12:36.034Z,15.32
2022-09-14T09:15:16.149Z,15.65
2022-09-14T09:17:47.359Z,15.38
2022-09-14T09:20:22.933Z,15.63
2022-09-14T09:22:56.320Z,16.06
2022-09-14T09:25:29.510Z,15.92
2022-09-14T09:28:01.822Z,15.87
2022-09-14T09:30:30.769Z,16.06
2022-09-14T09:32:58.877Z,15.85
2022-09-14T09:35:28.911Z,15.90
2022-09-14T09:37:56.880Z,15.60
2022-09-14T09:40:32.448Z,15.39
2022-09-14T09:43:11.989Z,15.05
2022-09-14T09:45:56.555Z,15.20
2022-09-14T09:48:28.472Z,14.76
2022-09-14T09:51:04.515Z,14.46
2022-09-14T09:53:33.973Z,13.73
2022-09-14T09:56:02.762Z,14.09
2022-09-14T09:58:36.825Z,14.03
2022-09-14T10:01:12.037Z,13.55
2022-09-14T10:03:41.996Z,13.77
2022-09-14T10:06:13.271Z,13.74
2022-09-14T10:08:44.306Z,13.70
2022-09-14T10:11:33.969Z,13.55
2022-09-14T10:14:03.232Z,13.78
2022-09-14T10:16:37.847Z,13.68
2022-09-14T10:19:15.201Z,13.96
2022-09-14T10:24:37.544Z,14.43
2022-09-14T10:27:42.017Z,14.71
2022-09-14T10:30:19.205Z,14.84
2022-09-14T10:32:53.698Z,15.12
2022-09-14T10:35:24.497Z,15.35
2022-09-14T10:38:09.676Z,15.55
2022-09-14T10:40:42.034Z,14.35
2022-09-14T10:43:16.685Z,15.92
2022-09-14T10:45:52.991Z,16.12
2022-09-14T10:49:02.849Z,16.26
2022-09-14T10:51:41.633Z,16.55
2022-09-14T10:54:20.467Z,17.49
2022-09-14T10:57:05.409Z,17.22
2022-09-14T10:59:43.837Z,16.59
2022-09-14T11:02:34.042Z,16.83
2022-09-14T11:05:13.038Z,16.92
2022-09-14T11:07:53.648Z,17.26
2022-09-14T11:10:30.189Z,16.99
2022-09-14T11:13:18.658Z,16.49
2022-09-14T11:15:59.857Z,16.66
2022-09-14T11:18:36.886Z,16.90
2022-09-14T11:21:16.477Z,16.62
2022-09-14T11:23:50.893Z,16.83
2022-09-14T11:26:27.080Z,16.97
2022-09-14T11:29:03.734Z,16.68
2022-09-14T11:31:36.903Z,17.01
2022-09-14T11:34:15.191Z,17.29
2022-09-14T11:36:47.168Z,17.60
2022-09-14T11:39:20.760Z,17.72
2022-09-14T11:41:53.310Z,17.61
2022-09-14T11:44:26.045Z,17.27
2022-09-14T11:47:00.919Z,17.34
2022-09-14T11:49:39.832Z,16.94
2022-09-14T11:52:15.531Z,16.85
2022-09-14T11:54:46.806Z,16.67
2022-09-14T11:57:19.112Z,16.59
2022-09-14T11:59:54.129Z,16.61
2022-09-14T12:03:13.194Z,17.24
2022-09-14T12:05:43.606Z,17.67
2022-09-14T12:08:41.756Z,17.41
2022-09-14T12:11:34.134Z,17.78
2022-09-14T12:14:15.815Z,17.77
2022-09-14T12:17:38.384Z,17.59
2022-09-14T12:20:40.391Z,17.00
2022-09-14T12:23:29.478Z,16.33
2022-09-14T12:26:09.951Z,16.35
2022-09-14T12:28:48.480Z,16.13
2022-09-14T12:31:36.272Z,16.16
2022-09-14T12:34:20.203Z,16.36
2022-09-14T12:37:16.453Z,16.23
2022-09-14T12:40:33.982Z,16.33
2022-09-14T12:43:48.529Z,16.69
2022-09-14T12:46:39.878Z,17.10
2022-09-14T12:49:35.804Z,17.10
2022-09-14T12:52:24.616Z,17.70
2022-09-14T12:55:22.581Z,17.45
2022-09-14T12:57:57.540Z,17.27
2022-09-14T13:00:28.441Z,17.89
2022-09-14T13:03:12.026Z,17.72
2022-09-14T13:05:44.983Z,17.59
2022-09-14T13:08:14.275Z,17.49
2022-09-14T13:10:47.860Z,17.23
2022-09-14T13:13:18.970Z,17.16
2022-09-14T13:15:53.488Z,17.20
2022-09-14T13:18:33.811Z,17.10
2022-09-14T13:21:05.264Z,16.55
2022-09-14T13:23:39.284Z,16.64
2022-09-14T13:26:11.812Z,16.45
2022-09-14T13:28:43.166Z,16.43
2022-09-14T13:31:14.638Z,16.14
2022-09-14T13:33:49.181Z,16.14
2022-09-14T13:36:23.105Z,16.34
2022-09-14T13:38:52.314Z,16.42
2022-09-14T13:41:23.305Z,16.41
2022-09-14T13:43:54.459Z,16.82
2022-09-14T13:46:23.355Z,18.39
2022-09-14T13:48:52.276Z,19.93
2022-09-14T13:51:26.722Z,21.09
2022-09-14T13:53:56.490Z,21.94
2022-09-14T13:56:31.393Z,21.54
2022-09-14T13:59:21.559Z,20.76
2022-09-14T14:01:56.473Z,20.22
2022-09-14T14:04:28.812Z,19.75
2022-09-14T14:07:06.600Z,18.64
2022-09-14T14:09:43.769Z,18.53
2022-09-14T14:12:13.866Z,17.91
2022-09-14T14:14:41.783Z,18.43
2022-09-14T14:17:37.008Z,18.62
2022-09-14T14:20:34.342Z,19.59
2022-09-14T14:23:21.266Z,19.46
2022-09-14T14:25:54.116Z,18.58
2022-09-14T14:28:26.001Z,18.12
2022-09-14T14:30:54.644Z,17.73
2022-09-14T14:33:23.717Z,17.76
2022-09-14T14:35:54.679Z,17.45
2022-09-14T14:38:25.024Z,17.06
2022-09-14T14:40:55.345Z,17.74
2022-09-14T14:43:26.055Z,19.12
2022-09-14T14:45:56.717Z,19.81
2022-09-14T14:48:24.970Z,20.59
2022-09-14T14:50:52.933Z,21.24
2022-09-14T14:53:20.801Z,21.25
2022-09-14T14:55:50.455Z,21.54
2022-09-14T14:58:20.002Z,22.51
2022-09-14T15:00:49.260Z,23.07
2022-09-14T15:03:19.123Z,22.32
2022-09-14T15:05:48.195Z,20.33
2022-09-14T15:08:17.730Z,19.17
2022-09-14T15:10:46.033Z,18.18
2022-09-14T15:13:15.461Z,17.61
2022-09-14T15:15:44.529Z,17.00
2022-09-14T15:18:12.427Z,17.03
2022-09-14T15:20:40.489Z,16.70
2022-09-14T15:23:10.055Z,16.64
2022-09-14T15:25:37.996Z,16.65
2022-09-14T15:28:05.900Z,16.75
2022-09-14T15:30:35.183Z,16.81
2022-09-14T15:33:03.141Z,16.79
2022-09-14T15:35:31.149Z,16.52
2022-09-14T15:37:58.986Z,16.30
2022-09-14T15:40:27.094Z,16.24
2022-09-14T15:42:55.145Z,16.13
2022-09-14T15:45:23.207Z,16.02
2022-09-14T15:47:52.609Z,15.99
2022-09-14T15:50:20.527Z,15.80
2022-09-14T15:52:48.357Z,15.84
2022-09-14T15:55:16.365Z,15.70
2022-09-14T15:57:44.245Z,15.58
2022-09-14T16:00:14.015Z,15.53
2022-09-14T16:02:42.146Z,15.29
2022-09-14T16:05:13.067Z,15.56
2022-09-14T16:07:41.077Z,15.54
2022-09-14T16:10:09.996Z,15.56
2022-09-14T16:12:37.892Z,15.52
2022-09-14T16:15:06.556Z,15.43
2022-09-14T16:17:34.481Z,15.51
2022-09-14T16:20:03.124Z,15.49
2022-09-14T16:22:32.772Z,15.48
2022-09-14T16:25:00.802Z,15.45
2022-09-14T16:27:30.483Z,15.37
2022-09-14T16:29:58.341Z,15.40
2022-09-14T16:32:26.529Z,15.40
2022-09-14T16:34:54.398Z,15.37
2022-09-14T16:37:22.265Z,15.25
2022-09-14T16:39:51.739Z,15.27
2022-09-14T16:42:20.324Z,15.26
2022-09-14T16:44:48.189Z,15.32
2022-09-14T16:47:16.313Z,15.31
2022-09-14T16:49:44.177Z,15.15
2022-09-14T16:52:12.114Z,15.26
2022-09-14T16:54:40.152Z,15.25
2022-09-14T16:57:09.937Z,15.17
2022-09-14T16:59:37.773Z,15.22
2022-09-14T17:02:05.919Z,15.22
2022-09-14T17:04:33.966Z,15.20
2022-09-14T17:07:01.747Z,15.19
2022-09-14T17:09:31.579Z,15.17
2022-09-14T17:12:00.418Z,15.02
2022-09-14T17:14:32.145Z,14.85
2022-09-14T17:17:00.703Z,14.98
2022-09-14T17:19:28.948Z,15.03
2022-09-14T17:21:56.949Z,14.63
2022-09-14T17:24:25.973Z,14.98
2022-09-14T17:26:54.062Z,14.95
2022-09-14T17:29:22.003Z,14.92
2022-09-14T17:31:51.672Z,14.89
2022-09-14T17:34:19.973Z,14.86
2022-09-14T17:36:47.941Z,14.84
2022-09-14T17:39:16.411Z,14.84
2022-09-14T17:41:44.474Z,14.71
2022-09-14T17:44:14.139Z,14.83
2022-09-14T17:46:51.160Z,14.82
2022-09-14T17:49:22.414Z,14.83
2022-09-14T17:51:50.934Z,14.82
2022-09-14T17:54:19.743Z,14.59
2022-09-14T17:56:47.776Z,14.80
2022-09-14T17:59:20.192Z,14.43
2022-09-14T18:01:49.020Z,14.48
2022-09-14T18:04:17.019Z,14.78
2022-09-14T18:06:47.695Z,14.77
2022-09-14T18:09:17.691Z,14.75
2022-09-14T18:11:46.200Z,14.73
2022-09-14T18:14:15.252Z,14.70
2022-09-14T18:16:44.775Z,14.64
2022-09-14T18:19:13.031Z,14.63
2022-09-14T18:21:41.475Z,14.65
2022-09-14T18:24:12.167Z,14.55
2022-09-14T18:26:39.978Z,14.59
2022-09-14T18:29:08.052Z,14.24
2022-09-14T18:31:36.171Z,14.55
2022-09-14T18:34:04.108Z,14.40
2022-09-14T18:36:32.054Z,14.42
2022-09-14T18:39:00.495Z,14.43
2022-09-14T18:41:31.397Z,14.30
2022-09-14T18:43:59.445Z,14.16
2022-09-14T18:46:29.159Z,14.36
2022-09-14T18:48:58.768Z,14.33
2022-09-14T18:51:28.263Z,13.97
2022-09-14T18:54:00.124Z,13.85
2022-09-14T18:56:33.051Z,14.18
2022-09-14T18:59:02.368Z,14.10
2022-09-14T19:01:30.272Z,14.07
2022-09-14T19:03:58.250Z,14.01
2022-09-14T19:06:26.643Z,13.96
2022-09-14T19:08:54.431Z,13.91
2022-09-14T19:11:23.789Z,13.84
2022-09-14T19:13:58.577Z,13.85
2022-09-14T19:16:26.661Z,13.83
2022-09-14T19:18:55.153Z,13.80
2022-09-14T19:21:25.687Z,13.76
2022-09-14T19:23:57.384Z,13.66
2022-09-14T19:26:25.278Z,13.45
2022-09-14T19:28:53.164Z,13.66
2022-09-14T19:31:24.492Z,13.37
2022-09-14T19:33:52.595Z,13.58
2022-09-14T19:36:23.837Z,13.59
2022-09-14T19:38:53.276Z,13.56
2022-09-14T19:41:21.989Z,13.53
2022-09-14T19:43:50.035Z,13.50
2022-09-14T19:46:19.417Z,13.43
2022-09-14T19:48:48.717Z,13.44
2022-09-14T19:51:18.788Z,13.27
2022-09-14T19:53:48.823Z,13.40
2022-09-14T19:56:18.901Z,13.26
2022-09-14T19:58:48.952Z,12.45
2022-09-14T20:01:17.931Z,13.30
2022-09-14T20:03:47.032Z,13.32
2022-09-14T20:06:21.346Z,13.23
2022-09-14T20:08:50.663Z,12.57
2022-09-14T20:11:20.336Z,13.23
2022-09-14T20:13:49.108Z,13.09
2022-09-14T20:16:19.474Z,13.17
2022-09-14T20:18:49.383Z,13.01
2022-09-14T20:21:20.729Z,13.13
2022-09-14T20:24:11.646Z,13.10
2022-09-14T20:26:36.881Z,13.05
2022-09-14T20:29:05.077Z,13.02
2022-09-14T20:31:32.999Z,13.02
2022-09-14T20:34:02.161Z,12.99
2022-09-14T20:36:32.498Z,12.62
2022-09-14T20:39:00.985Z,12.93
2022-09-14T20:41:31.217Z,12.90
2022-09-14T20:43:59.228Z,12.86
2022-09-14T20:46:31.005Z,12.66
2022-09-14T20:48:59.528Z,12.61
2022-09-14T20:51:28.002Z,12.77
2022-09-14T20:53:57.331Z,12.75
2022-09-14T20:56:27.145Z,12.73
2022-09-14T20:58:56.243Z,12.60
2022-09-14T21:01:26.918Z,12.67
2022-09-14T21:03:55.617Z,12.63
2022-09-14T21:06:24.730Z,12.58
2022-09-14T21:08:53.476Z,12.54
2022-09-14T21:11:24.574Z,12.49
2022-09-14T21:13:54.246Z,12.39
2022-09-14T21:16:24.763Z,12.43
2022-09-14T21:18:54.680Z,12.40
2022-09-14T21:21:23.019Z,12.31
2022-09-14T21:23:51.451Z,12.34
2022-09-14T21:26:20.461Z,12.30
2022-09-14T21:28:50.148Z,12.28
2022-09-14T21:31:19.959Z,12.26
2022-09-14T21:33:49.594Z,12.23
2022-09-14T21:36:19.732Z,12.20
2022-09-14T21:38:50.420Z,12.14
2022-09-14T21:41:19.014Z,12.10
2022-09-14T21:43:47.766Z,12.09
2022-09-14T21:46:17.804Z,12.05
2022-09-14T21:48:46.367Z,12.04
2022-09-14T21:51:18.557Z,12.01
2022-09-14T21:53:47.682Z,12.00
2022-09-14T21:56:16.336Z,11.97
2022-09-14T21:58:44.628Z,11.96
2022-09-14T22:01:12.780Z,11.95
2022-09-14T22:03:42.036Z,11.91
2022-09-14T22:06:13.847Z,11.87
2022-09-14T22:08:41.918Z,11.80
2022-09-14T22:11:11.991Z,11.67
2022-09-14T22:13:42.578Z,11.78
2022-09-14T22:16:11.836Z,11.58
2022-09-14T22:18:49.045Z,11.68
2022-09-14T22:21:17.947Z,11.66
2022-09-14T22:23:50.604Z,11.62
2022-09-14T22:26:20.127Z,11.59
2022-09-14T22:28:49.190Z,11.47
2022-09-14T22:31:18.339Z,11.46
2022-09-14T22:33:48.105Z,11.53
2022-09-14T22:36:16.300Z,11.51
2022-09-14T22:38:45.644Z,11.48
2022-09-14T22:41:17.629Z,11.45
2022-09-14T22:43:46.925Z,11.42
2022-09-14T22:46:15.607Z,11.41
2022-09-14T22:48:43.965Z,11.39
2022-09-14T22:51:15.910Z,11.35
2022-09-14T22:53:44.178Z,11.34
2022-09-14T22:56:23.604Z,11.32
2022-09-14T22:58:51.699Z,11.32
2022-09-14T23:01:22.505Z,10.63
2022-09-14T23:03:51.257Z,11.24
2022-09-14T23:06:20.886Z,11.12
2022-09-14T23:08:48.813Z,11.21
2022-09-14T23:11:16.662Z,11.09
2022-09-14T23:13:44.564Z,11.03
2022-09-14T23:16:13.983Z,11.14
2022-09-14T23:18:42.152Z,11.17
2022-09-14T23:21:10.966Z,11.16
2022-09-14T23:23:40.572Z,11.10
2022-09-14T23:26:10.302Z,11.14
2022-09-14T23:28:39.104Z,11.10
2022-09-14T23:31:07.254Z,11.06
2022-09-14T23:33:35.679Z,11.03
2022-09-14T23:36:03.974Z,11.01
2022-09-14T23:38:31.862Z,10.99
2022-09-14T23:41:01.865Z,10.97
2022-09-14T23:43:29.829Z,10.96
2022-09-14T23:45:57.753Z,10.95
2022-09-14T23:48:25.747Z,10.79
2022-09-14T23:51:00.564Z,10.86
2022-09-14T23:53:29.070Z,10.81
2022-09-14T23:55:57.459Z,10.80
2022-09-14T23:58:26.985Z,10.83
